This is the latest recevied weather packets stored in our database for station/object W4FXD. If no packets are shown the sender has not sent any weather packets the latest 10 day(s).
| Time | Temp. | Humidity | Pressure | Rain* | Wind** | Luminosity | Snow |
|---|---|---|---|---|---|---|---|
| 1777729614 | 12.78° C | 54% | 1016.1 hPa | 0 mm | - | 448 W/m² | - |
| 1777729312 | 12.22° C | 55% | 1016.1 hPa | 0 mm | - | 357 W/m² | - |
| 1777729008 | 11.67° C | 59% | 1016.2 hPa | 0 mm | - | 172 W/m² | - |
| 1777728705 | 12.22° C | 57% | 1016 hPa | 0 mm | - | 235 W/m² | - |
| 1777728401 | 11.67° C | 60% | 1016 hPa | 0 mm | - | 263 W/m² | - |
| 1777728099 | 11.67° C | 62% | 1016.2 hPa | 0 mm | - | 220 W/m² | - |
| 1777727796 | 11.67° C | 62% | 1016.1 hPa | 0 mm | - | 272 W/m² | - |
| 1777727492 | 11.67° C | 62% | 1016.4 hPa | 0 mm | - | 214 W/m² | - |
| 1777727190 | 12.22° C | 66% | 1016.3 hPa | 0 mm | - | 216 W/m² | - |
| 1777726888 | 11.67° C | 67% | 1016.2 hPa | 0 mm | - | 225 W/m² | - |
| 1777726584 | 11.67° C | 67% | 1016.2 hPa | 0 mm | - | 323 W/m² | - |
| 1777726281 | 11.11° C | 68% | 1016.5 hPa | 0 mm | - | 245 W/m² | - |
| 1777725978 | 11.11° C | 69% | 1016.2 hPa | 0 mm | - | 188 W/m² | - |
| 1777725675 | 11.11° C | 68% | 1016.6 hPa | 0 mm | - | 151 W/m² | - |
| 1777725374 | 11.11° C | 66% | 1016.3 hPa | 0 mm | - | 210 W/m² | - |
| 1777725070 | 11.11° C | 69% | 1016.3 hPa | 0 mm | - | 140 W/m² | - |
| 1777724767 | 10° C | 69% | 1016.2 hPa | 0 mm | - | 209 W/m² | - |
| 1777724463 | 9.44° C | 72% | 1016.5 hPa | 0 mm | - | 140 W/m² | - |
| 1777724161 | 9.44° C | 73% | 1016.4 hPa | 0 mm | - | 60 W/m² | - |
| 1777723859 | 9.44° C | 73% | 1016.2 hPa | 0 mm | - | 54 W/m² | - |
| 1777723554 | 9.44° C | 74% | 1016.1 hPa | 0 mm | - | 72 W/m² | - |
| 1777723252 | 9.44° C | 73% | 1016.1 hPa | 0 mm | - | 60 W/m² | - |
| 1777722950 | 9.44° C | 73% | 1016.3 hPa | 0 mm | - | 55 W/m² | - |
| 1777722645 | 9.44° C | 73% | 1016 hPa | 0 mm | - | 65 W/m² | - |
| 1777722342 | 9.44° C | 73% | 1016.1 hPa | 0 mm | - | 58 W/m² | - |
* Rain latest hour (hover to see other rain measurements)
** Current wind speed in m/s (hover to see current wind gust speed)